sensor_id;sensor_type;location;lat;lon;timestamp;pressure;altitude;pressure_sealevel;temperature;humidity
3082;BME280;1551;51.046;7.010;2023-02-03T00:02:39;101874.16;;;10.19;87.96
3082;BME280;1551;51.046;7.010;2023-02-03T00:05:28;101862.16;;;10.13;88.25
3082;BME280;1551;51.046;7.010;2023-02-03T00:08:18;101864.78;;;10.19;87.87
3082;BME280;1551;51.046;7.010;2023-02-03T00:11:07;101858.03;;;10.24;88.03
3082;BME280;1551;51.046;7.010;2023-02-03T00:13:56;101852.81;;;10.20;87.67
3082;BME280;1551;51.046;7.010;2023-02-03T00:16:45;101852.88;;;10.21;88.00
3082;BME280;1551;51.046;7.010;2023-02-03T00:19:34;101857.09;;;10.19;87.80
3082;BME280;1551;51.046;7.010;2023-02-03T00:22:23;101851.13;;;10.17;87.51
3082;BME280;1551;51.046;7.010;2023-02-03T00:25:12;101837.44;;;10.15;87.08
3082;BME280;1551;51.046;7.010;2023-02-03T00:28:01;101838.34;;;10.19;87.94
3082;BME280;1551;51.046;7.010;2023-02-03T00:30:50;101831.53;;;10.21;87.22
3082;BME280;1551;51.046;7.010;2023-02-03T00:33:41;101828.16;;;10.25;87.90
3082;BME280;1551;51.046;7.010;2023-02-03T00:36:30;101828.19;;;10.29;87.27
3082;BME280;1551;51.046;7.010;2023-02-03T00:39:19;101835.03;;;10.29;87.68
3082;BME280;1551;51.046;7.010;2023-02-03T00:42:08;101837.59;;;10.30;86.93
3082;BME280;1551;51.046;7.010;2023-02-03T00:44:57;101833.34;;;10.34;86.93
3082;BME280;1551;51.046;7.010;2023-02-03T00:47:47;101836.78;;;10.34;87.02
3082;BME280;1551;51.046;7.010;2023-02-03T00:50:35;101824.81;;;10.29;86.79
3082;BME280;1551;51.046;7.010;2023-02-03T00:53:24;101821.41;;;10.31;86.83
3082;BME280;1551;51.046;7.010;2023-02-03T00:56:13;101818.81;;;10.30;86.98
3082;BME280;1551;51.046;7.010;2023-02-03T00:59:03;101829.09;;;10.31;86.77
3082;BME280;1551;51.046;7.010;2023-02-03T01:01:53;101830.78;;;10.32;87.56
3082;BME280;1551;51.046;7.010;2023-02-03T01:04:42;101832.53;;;10.35;86.56
3082;BME280;1551;51.046;7.010;2023-02-03T01:07:31;101823.16;;;10.37;86.53
3082;BME280;1551;51.046;7.010;2023-02-03T01:10:21;101822.31;;;10.38;86.43
3082;BME280;1551;51.046;7.010;2023-02-03T01:13:10;101827.41;;;10.33;85.96
3082;BME280;1551;51.046;7.010;2023-02-03T01:15:58;101840.19;;;10.35;86.66
3082;BME280;1551;51.046;7.010;2023-02-03T01:18:49;101841.03;;;10.34;86.45
3082;BME280;1551;51.046;7.010;2023-02-03T01:21:38;101845.31;;;10.36;86.63
3082;BME280;1551;51.046;7.010;2023-02-03T01:24:28;101858.97;;;10.37;86.04
3082;BME280;1551;51.046;7.010;2023-02-03T01:27:18;101864.13;;;10.40;86.26
3082;BME280;1551;51.046;7.010;2023-02-03T01:30:08;101869.25;;;10.40;86.31
3082;BME280;1551;51.046;7.010;2023-02-03T01:32:57;101876.06;;;10.41;86.55
3082;BME280;1551;51.046;7.010;2023-02-03T01:35:47;101865.00;;;10.42;86.22
3082;BME280;1551;51.046;7.010;2023-02-03T01:38:37;101860.72;;;10.38;86.09
3082;BME280;1551;51.046;7.010;2023-02-03T01:41:32;101863.31;;;10.43;86.74
3082;BME280;1551;51.046;7.010;2023-02-03T01:44:41;101875.25;;;10.44;86.55
3082;BME280;1551;51.046;7.010;2023-02-03T01:47:52;101879.53;;;10.43;86.35
3082;BME280;1551;51.046;7.010;2023-02-03T01:50:42;101878.66;;;10.44;85.92
3082;BME280;1551;51.046;7.010;2023-02-03T01:53:32;101871.81;;;10.42;85.87
3082;BME280;1551;51.046;7.010;2023-02-03T01:56:22;101878.66;;;10.43;86.13
3082;BME280;1551;51.046;7.010;2023-02-03T01:59:15;101883.75;;;10.38;86.04
3082;BME280;1551;51.046;7.010;2023-02-03T02:02:06;101872.63;;;10.38;85.88
3082;BME280;1551;51.046;7.010;2023-02-03T02:05:05;101875.16;;;10.33;86.62
3082;BME280;1551;51.046;7.010;2023-02-03T02:07:55;101848.75;;;10.38;86.22
3082;BME280;1551;51.046;7.010;2023-02-03T02:10:45;101846.19;;;10.37;86.77
3082;BME280;1551;51.046;7.010;2023-02-03T02:13:35;101852.94;;;10.30;86.16
3082;BME280;1551;51.046;7.010;2023-02-03T02:29:11;101855.56;;;10.36;85.88
3082;BME280;1551;51.046;7.010;2023-02-03T02:32:02;101852.13;;;10.33;86.46
3082;BME280;1551;51.046;7.010;2023-02-03T02:38:24;101841.06;;;10.37;86.92
3082;BME280;1551;51.046;7.010;2023-02-03T02:41:42;101837.63;;;10.33;86.59
3082;BME280;1551;51.046;7.010;2023-02-03T02:44:36;101829.91;;;10.29;86.89
3082;BME280;1551;51.046;7.010;2023-02-03T02:47:28;101825.63;;;10.28;86.62
3082;BME280;1551;51.046;7.010;2023-02-03T02:50:24;101817.09;;;10.24;86.40
3082;BME280;1551;51.046;7.010;2023-02-03T02:53:16;101823.97;;;10.31;86.28
3082;BME280;1551;51.046;7.010;2023-02-03T02:56:09;101820.50;;;10.28;86.48
3082;BME280;1551;51.046;7.010;2023-02-03T02:59:01;101842.69;;;10.27;86.46
3082;BME280;1551;51.046;7.010;2023-02-03T03:01:53;101826.47;;;10.25;85.87
3082;BME280;1551;51.046;7.010;2023-02-03T03:04:43;101841.84;;;10.28;86.10
3082;BME280;1551;51.046;7.010;2023-02-03T03:07:44;101835.03;;;10.30;86.47
3082;BME280;1551;51.046;7.010;2023-02-03T03:10:36;101830.78;;;10.32;86.72
3082;BME280;1551;51.046;7.010;2023-02-03T03:13:31;101830.75;;;10.26;86.46
3082;BME280;1551;51.046;7.010;2023-02-03T03:16:28;101810.19;;;10.19;86.64
3082;BME280;1551;51.046;7.010;2023-02-03T03:19:24;101817.13;;;10.30;86.63
3082;BME280;1551;51.046;7.010;2023-02-03T03:22:16;101799.97;;;10.19;86.97
3082;BME280;1551;51.046;7.010;2023-02-03T03:25:15;101814.56;;;10.30;87.26
3082;BME280;1551;51.046;7.010;2023-02-03T03:28:11;101818.81;;;10.28;86.83
3082;BME280;1551;51.046;7.010;2023-02-03T03:31:01;101821.34;;;10.27;87.41
3082;BME280;1551;51.046;7.010;2023-02-03T03:33:50;101818.78;;;10.24;86.37
3082;BME280;1551;51.046;7.010;2023-02-03T03:39:56;101823.03;;;10.23;87.06
3082;BME280;1551;51.046;7.010;2023-02-03T03:43:13;101818.72;;;10.19;87.24
3082;BME280;1551;51.046;7.010;2023-02-03T03:46:00;101815.31;;;10.20;86.42
3082;BME280;1551;51.046;7.010;2023-02-03T03:48:55;101811.94;;;10.21;86.87
3082;BME280;1551;51.046;7.010;2023-02-03T03:51:54;101810.25;;;10.25;86.84
3082;BME280;1551;51.046;7.010;2023-02-03T03:54:44;101802.63;;;10.31;86.74
3082;BME280;1551;51.046;7.010;2023-02-03T03:57:41;101806.00;;;10.27;86.68
3082;BME280;1551;51.046;7.010;2023-02-03T04:00:34;101807.72;;;10.28;86.82
3082;BME280;1551;51.046;7.010;2023-02-03T04:03:28;101821.34;;;10.27;86.24
3082;BME280;1551;51.046;7.010;2023-02-03T04:06:19;101817.13;;;10.29;86.16
3082;BME280;1551;51.046;7.010;2023-02-03T04:09:08;101816.22;;;10.27;86.07
3082;BME280;1551;51.046;7.010;2023-02-03T04:11:57;101806.00;;;10.27;86.43
3082;BME280;1551;51.046;7.010;2023-02-03T04:14:49;101800.78;;;10.18;86.36
3082;BME280;1551;51.046;7.010;2023-02-03T04:17:38;101790.59;;;10.21;86.01
3082;BME280;1551;51.046;7.010;2023-02-03T04:20:28;101811.97;;;10.26;86.14
3082;BME280;1551;51.046;7.010;2023-02-03T04:23:17;101814.56;;;10.32;86.40
3082;BME280;1551;51.046;7.010;2023-02-03T04:26:06;101808.53;;;10.25;86.14
3082;BME280;1551;51.046;7.010;2023-02-03T04:28:55;101821.34;;;10.24;86.09
3082;BME280;1551;51.046;7.010;2023-02-03T04:31:44;101818.78;;;10.25;85.59
3082;BME280;1551;51.046;7.010;2023-02-03T04:34:33;101813.75;;;10.31;85.84
3082;BME280;1551;51.046;7.010;2023-02-03T04:37:23;101807.75;;;10.32;85.86
3082;BME280;1551;51.046;7.010;2023-02-03T04:40:14;101794.97;;;10.31;85.37
3082;BME280;1551;51.046;7.010;2023-02-03T04:43:07;101805.19;;;10.32;85.95
3082;BME280;1551;51.046;7.010;2023-02-03T04:45:58;101809.44;;;10.30;85.35
3082;BME280;1551;51.046;7.010;2023-02-03T04:48:47;101814.59;;;10.35;85.02
3082;BME280;1551;51.046;7.010;2023-02-03T04:51:36;101812.03;;;10.33;84.85
3082;BME280;1551;51.046;7.010;2023-02-03T04:54:25;101801.81;;;10.33;85.45
3082;BME280;1551;51.046;7.010;2023-02-03T04:57:14;101800.06;;;10.32;85.20
3082;BME280;1551;51.046;7.010;2023-02-03T05:00:04;101794.13;;;10.35;85.57
3082;BME280;1551;51.046;7.010;2023-02-03T05:02:54;101795.88;;;10.38;85.55
3082;BME280;1551;51.046;7.010;2023-02-03T05:05:43;101795.00;;;10.35;84.83
3082;BME280;1551;51.046;7.010;2023-02-03T05:08:32;101800.94;;;10.34;84.98
3082;BME280;1551;51.046;7.010;2023-02-03T05:11:21;101784.69;;;10.29;85.10
3082;BME280;1551;51.046;7.010;2023-02-03T05:14:10;101792.38;;;10.29;84.92
3082;BME280;1551;51.046;7.010;2023-02-03T05:16:59;101779.59;;;10.31;84.96
3082;BME280;1551;51.046;7.010;2023-02-03T05:19:48;101772.75;;;10.28;85.07
3082;BME280;1551;51.046;7.010;2023-02-03T05:22:37;101771.91;;;10.26;85.75
3082;BME280;1551;51.046;7.010;2023-02-03T05:25:26;101758.25;;;10.24;85.82
3082;BME280;1551;51.046;7.010;2023-02-03T05:28:15;101754.78;;;10.22;85.61
3082;BME280;1551;51.046;7.010;2023-02-03T05:31:04;101772.78;;;10.33;85.26
3082;BME280;1551;51.046;7.010;2023-02-03T05:33:53;101765.13;;;10.33;85.33
3082;BME280;1551;51.046;7.010;2023-02-03T05:36:42;101764.25;;;10.32;85.72
3082;BME280;1551;51.046;7.010;2023-02-03T05:39:31;101766.81;;;10.32;85.72
3082;BME280;1551;51.046;7.010;2023-02-03T05:42:20;101755.75;;;10.35;85.12
3082;BME280;1551;51.046;7.010;2023-02-03T05:45:09;101776.19;;;10.32;84.91
3082;BME280;1551;51.046;7.010;2023-02-03T05:47:57;101785.56;;;10.30;84.68
3082;BME280;1551;51.046;7.010;2023-02-03T05:50:46;101784.69;;;10.28;85.40
3082;BME280;1551;51.046;7.010;2023-02-03T05:53:35;101789.81;;;10.29;85.28
3082;BME280;1551;51.046;7.010;2023-02-03T05:56:24;101779.56;;;10.28;84.89
3082;BME280;1551;51.046;7.010;2023-02-03T05:59:14;101789.81;;;10.26;85.09
3082;BME280;1551;51.046;7.010;2023-02-03T06:02:03;101797.53;;;10.32;84.95
3082;BME280;1551;51.046;7.010;2023-02-03T06:04:52;101800.94;;;10.31;84.86
3082;BME280;1551;51.046;7.010;2023-02-03T06:07:41;101800.06;;;10.31;85.12
3082;BME280;1551;51.046;7.010;2023-02-03T06:10:30;101800.94;;;10.31;84.56
3082;BME280;1551;51.046;7.010;2023-02-03T06:13:19;101804.38;;;10.35;84.73
3082;BME280;1551;51.046;7.010;2023-02-03T06:16:08;101803.53;;;10.36;84.60
3082;BME280;1551;51.046;7.010;2023-02-03T06:18:57;101814.59;;;10.33;84.15
3082;BME280;1551;51.046;7.010;2023-02-03T06:21:46;101805.19;;;10.31;84.34
3082;BME280;1551;51.046;7.010;2023-02-03T06:24:35;101798.38;;;10.31;84.04
3082;BME280;1551;51.046;7.010;2023-02-03T06:27:25;101782.16;;;10.34;84.17
3082;BME280;1551;51.046;7.010;2023-02-03T06:30:14;101806.94;;;10.36;83.61
3082;BME280;1551;51.046;7.010;2023-02-03T06:33:04;101794.97;;;10.34;83.57
3082;BME280;1551;51.046;7.010;2023-02-03T06:35:53;101794.97;;;10.32;84.14
3082;BME280;1551;51.046;7.010;2023-02-03T06:38:42;101811.22;;;10.36;83.83
3082;BME280;1551;51.046;7.010;2023-02-03T06:41:31;101817.19;;;10.38;84.02
3082;BME280;1551;51.046;7.010;2023-02-03T06:44:21;101807.78;;;10.38;83.46
3082;BME280;1551;51.046;7.010;2023-02-03T06:47:10;101805.22;;;10.35;84.06
3082;BME280;1551;51.046;7.010;2023-02-03T06:49:59;101805.22;;;10.37;83.49
3082;BME280;1551;51.046;7.010;2023-02-03T06:52:48;101806.06;;;10.33;84.13
3082;BME280;1551;51.046;7.010;2023-02-03T06:55:38;101816.34;;;10.39;83.58
3082;BME280;1551;51.046;7.010;2023-02-03T06:58:27;101804.38;;;10.36;83.48
3082;BME280;1551;51.046;7.010;2023-02-03T07:01:16;101805.22;;;10.35;83.61
3082;BME280;1551;51.046;7.010;2023-02-03T07:04:05;101807.75;;;10.32;83.67
3082;BME280;1551;51.046;7.010;2023-02-03T07:06:55;101794.91;;;10.26;83.59
3082;BME280;1551;51.046;7.010;2023-02-03T07:09:44;101800.13;;;10.35;83.65
3082;BME280;1551;51.046;7.010;2023-02-03T07:12:33;101800.94;;;10.34;84.02
3082;BME280;1551;51.046;7.010;2023-02-03T07:15:24;101811.22;;;10.39;84.31
3082;BME280;1551;51.046;7.010;2023-02-03T07:18:15;101804.41;;;10.40;83.48
3082;BME280;1551;51.046;7.010;2023-02-03T07:21:06;101801.84;;;10.38;83.66
3082;BME280;1551;51.046;7.010;2023-02-03T07:23:55;101796.69;;;10.36;84.20
3082;BME280;1551;51.046;7.010;2023-02-03T07:26:44;101811.28;;;10.45;83.37
3082;BME280;1551;51.046;7.010;2023-02-03T07:29:33;101817.25;;;10.44;83.66
3082;BME280;1551;51.046;7.010;2023-02-03T07:32:22;101816.38;;;10.42;83.46
3082;BME280;1551;51.046;7.010;2023-02-03T07:35:11;101827.47;;;10.44;84.06
3082;BME280;1551;51.046;7.010;2023-02-03T07:38:00;101813.00;;;10.46;83.36
3082;BME280;1551;51.046;7.010;2023-02-03T07:40:50;101814.72;;;10.49;82.78
3082;BME280;1551;51.046;7.010;2023-02-03T07:43:39;101811.28;;;10.48;82.89
3082;BME280;1551;51.046;7.010;2023-02-03T07:46:28;101819.81;;;10.46;82.99
3082;BME280;1551;51.046;7.010;2023-02-03T07:49:17;101819.81;;;10.44;82.99
3082;BME280;1551;51.046;7.010;2023-02-03T07:52:06;101817.28;;;10.49;83.56
3082;BME280;1551;51.046;7.010;2023-02-03T07:54:55;101818.22;;;10.57;83.57
3082;BME280;1551;51.046;7.010;2023-02-03T07:57:44;101826.72;;;10.56;82.51
3082;BME280;1551;51.046;7.010;2023-02-03T08:00:33;101820.72;;;10.52;83.06
3082;BME280;1551;51.046;7.010;2023-02-03T08:03:22;101809.66;;;10.55;82.77
3082;BME280;1551;51.046;7.010;2023-02-03T08:06:10;101829.28;;;10.56;82.33
3082;BME280;1551;51.046;7.010;2023-02-03T08:08:59;101831.00;;;10.58;82.49
3082;BME280;1551;51.046;7.010;2023-02-03T08:11:48;101828.41;;;10.55;82.68
3082;BME280;1551;51.046;7.010;2023-02-03T08:14:37;101822.47;;;10.58;82.81
3082;BME280;1551;51.046;7.010;2023-02-03T08:17:26;101807.94;;;10.52;82.46
3082;BME280;1551;51.046;7.010;2023-02-03T08:20:15;101825.03;;;10.56;82.86
3082;BME280;1551;51.046;7.010;2023-02-03T08:23:05;101825.88;;;10.58;82.10
3082;BME280;1551;51.046;7.010;2023-02-03T08:25:54;101839.56;;;10.59;82.41
3082;BME280;1551;51.046;7.010;2023-02-03T08:28:47;101842.97;;;10.61;82.21
3082;BME280;1551;51.046;7.010;2023-02-03T08:31:36;101845.50;;;10.55;82.01
3082;BME280;1551;51.046;7.010;2023-02-03T08:34:25;101845.47;;;10.53;82.13
3082;BME280;1551;51.046;7.010;2023-02-03T08:37:16;101857.47;;;10.60;82.15
3082;BME280;1551;51.046;7.010;2023-02-03T08:40:06;101854.09;;;10.61;82.46
3082;BME280;1551;51.046;7.010;2023-02-03T08:42:55;101849.00;;;10.64;82.93
3082;BME280;1551;51.046;7.010;2023-02-03T08:45:44;101866.06;;;10.64;82.67
3082;BME280;1551;51.046;7.010;2023-02-03T08:48:34;101863.50;;;10.65;82.55
3082;BME280;1551;51.046;7.010;2023-02-03T08:51:23;101860.00;;;10.54;82.40
3082;BME280;1551;51.046;7.010;2023-02-03T08:54:13;101847.94;;;10.43;82.74
3082;BME280;1551;51.046;7.010;2023-02-03T08:57:02;101859.06;;;10.43;83.62
3082;BME280;1551;51.046;7.010;2023-02-03T08:59:51;101850.47;;;10.38;83.60
3082;BME280;1551;51.046;7.010;2023-02-03T09:02:40;101853.94;;;10.45;83.60
3082;BME280;1551;51.046;7.010;2023-02-03T09:05:30;101860.75;;;10.44;83.72
3082;BME280;1551;51.046;7.010;2023-02-03T09:08:19;101858.16;;;10.38;84.38
3082;BME280;1551;51.046;7.010;2023-02-03T09:11:13;101860.75;;;10.44;83.87
3082;BME280;1551;51.046;7.010;2023-02-03T09:14:02;101863.34;;;10.49;84.35
3082;BME280;1551;51.046;7.010;2023-02-03T09:16:51;101862.53;;;10.51;84.00
3082;BME280;1551;51.046;7.010;2023-02-03T09:19:40;101856.50;;;10.43;83.99
3082;BME280;1551;51.046;7.010;2023-02-03T09:22:29;101862.47;;;10.45;83.81
3082;BME280;1551;51.046;7.010;2023-02-03T09:25:18;101860.78;;;10.49;84.21
3082;BME280;1551;51.046;7.010;2023-02-03T09:28:07;101859.97;;;10.50;84.20
3082;BME280;1551;51.046;7.010;2023-02-03T09:31:00;101867.63;;;10.51;83.35
3082;BME280;1551;51.046;7.010;2023-02-03T09:33:50;101859.91;;;10.45;83.56
3082;BME280;1551;51.046;7.010;2023-02-03T09:36:39;101864.22;;;10.49;83.61
3082;BME280;1551;51.046;7.010;2023-02-03T09:39:27;101855.63;;;10.43;84.42
3082;BME280;1551;51.046;7.010;2023-02-03T09:45:25;101865.09;;;10.51;84.45
3082;BME280;1551;51.046;7.010;2023-02-03T09:48:28;101851.41;;;10.48;85.09
3082;BME280;1551;51.046;7.010;2023-02-03T09:51:26;101853.91;;;10.40;84.98
3082;BME280;1551;51.046;7.010;2023-02-03T09:54:18;101859.06;;;10.43;85.08
3082;BME280;1551;51.046;7.010;2023-02-03T09:57:19;101865.00;;;10.42;85.12
3082;BME280;1551;51.046;7.010;2023-02-03T10:00:18;101858.97;;;10.38;86.10
3082;BME280;1551;51.046;7.010;2023-02-03T10:03:21;101865.88;;;10.44;85.99
3082;BME280;1551;51.046;7.010;2023-02-03T10:06:35;101865.84;;;10.41;86.44
3082;BME280;1551;51.046;7.010;2023-02-03T10:12:53;101870.91;;;10.35;86.88
3082;BME280;1551;51.046;7.010;2023-02-03T10:19:15;101878.63;;;10.38;88.21
3082;BME280;1551;51.046;7.010;2023-02-03T10:22:13;101876.81;;;10.29;88.19
3082;BME280;1551;51.046;7.010;2023-02-03T10:25:13;101876.81;;;10.29;88.51
3082;BME280;1551;51.046;7.010;2023-02-03T10:28:13;101870.91;;;10.33;88.75
3082;BME280;1551;51.046;7.010;2023-02-03T10:31:16;101865.75;;;10.32;88.43
3082;BME280;1551;51.046;7.010;2023-02-03T10:34:16;101873.41;;;10.29;89.65
3082;BME280;1551;51.046;7.010;2023-02-03T10:37:24;101863.19;;;10.29;89.36
3082;BME280;1551;51.046;7.010;2023-02-03T10:40:15;101871.72;;;10.34;90.01
3082;BME280;1551;51.046;7.010;2023-02-03T10:43:04;101867.38;;;10.24;89.96
3082;BME280;1551;51.046;7.010;2023-02-03T10:46:13;101848.63;;;10.23;90.55
3082;BME280;1551;51.046;7.010;2023-02-03T10:49:03;101865.56;;;10.15;91.05
3082;BME280;1551;51.046;7.010;2023-02-03T10:51:53;101870.78;;;10.21;91.67
3082;BME280;1551;51.046;7.010;2023-02-03T10:54:44;101859.69;;;10.22;91.61
3082;BME280;1551;51.046;7.010;2023-02-03T10:57:36;101864.00;;;10.26;91.76
3082;BME280;1551;51.046;7.010;2023-02-03T11:00:31;101875.97;;;10.32;91.58
3082;BME280;1551;51.046;7.010;2023-02-03T11:03:27;101870.88;;;10.30;91.98
3082;BME280;1551;51.046;7.010;2023-02-03T11:06:16;101864.00;;;10.28;92.52
3082;BME280;1551;51.046;7.010;2023-02-03T11:09:27;101864.88;;;10.28;92.69
3082;BME280;1551;51.046;7.010;2023-02-03T11:12:18;101875.19;;;10.36;93.11
3082;BME280;1551;51.046;7.010;2023-02-03T11:15:13;101862.41;;;10.38;92.48
3082;BME280;1551;51.046;7.010;2023-02-03T11:18:02;101864.91;;;10.34;92.04
3082;BME280;1551;51.046;7.010;2023-02-03T11:20:51;101858.97;;;10.38;92.52
3082;BME280;1551;51.046;7.010;2023-02-03T11:24:29;101841.88;;;10.34;92.47
3082;BME280;1551;51.046;7.010;2023-02-03T11:29:48;101853.06;;;10.44;92.37
3082;BME280;1551;51.046;7.010;2023-02-03T11:32:39;101847.13;;;10.45;92.34
3082;BME280;1551;51.046;7.010;2023-02-03T11:35:30;101848.00;;;10.49;92.70
3082;BME280;1551;51.046;7.010;2023-02-03T11:38:29;101849.72;;;10.53;92.05
3082;BME280;1551;51.046;7.010;2023-02-03T11:41:19;101854.84;;;10.53;92.36
3082;BME280;1551;51.046;7.010;2023-02-03T11:44:19;101863.41;;;10.56;91.71
3082;BME280;1551;51.046;7.010;2023-02-03T11:47:09;101874.59;;;10.64;91.91
3082;BME280;1551;51.046;7.010;2023-02-03T11:50:15;101872.84;;;10.59;91.54
3082;BME280;1551;51.046;7.010;2023-02-03T12:06:05;101862.66;;;10.66;90.74
3082;BME280;1551;51.046;7.010;2023-02-03T12:09:41;101861.00;;;10.73;90.47
3082;BME280;1551;51.046;7.010;2023-02-03T12:21:51;101861.03;;;10.79;90.50
3082;BME280;1551;51.046;7.010;2023-02-03T12:25:03;101857.66;;;10.80;89.69
3082;BME280;1551;51.046;7.010;2023-02-03T12:28:07;101853.41;;;10.80;89.51
3082;BME280;1551;51.046;7.010;2023-02-03T12:31:03;101858.50;;;10.82;89.37
3082;BME280;1551;51.046;7.010;2023-02-03T12:34:36;101855.13;;;10.83;89.81
3082;BME280;1551;51.046;7.010;2023-02-03T12:37:31;101857.69;;;10.86;90.09
3082;BME280;1551;51.046;7.010;2023-02-03T12:40:51;101857.72;;;10.89;89.23
3082;BME280;1551;51.046;7.010;2023-02-03T12:43:45;101861.09;;;10.86;89.46
3082;BME280;1551;51.046;7.010;2023-02-03T12:46:42;101863.69;;;10.89;89.25
3082;BME280;1551;51.046;7.010;2023-02-03T12:49:41;101851.75;;;10.91;88.89
3082;BME280;1551;51.046;7.010;2023-02-03T12:52:39;101844.94;;;10.93;88.91
3082;BME280;1551;51.046;7.010;2023-02-03T12:55:38;101853.50;;;10.94;89.04
3082;BME280;1551;51.046;7.010;2023-02-03T12:58:47;101852.63;;;10.93;88.55
3082;BME280;1551;51.046;7.010;2023-02-03T13:01:44;101851.75;;;10.91;88.32
3082;BME280;1551;51.046;7.010;2023-02-03T13:04:56;101859.44;;;10.93;88.52
3082;BME280;1551;51.046;7.010;2023-02-03T13:07:52;101852.59;;;10.89;89.03
3082;BME280;1551;51.046;7.010;2023-02-03T13:11:02;101857.75;;;10.95;89.11
3082;BME280;1551;51.046;7.010;2023-02-03T13:13:59;101862.03;;;10.97;88.63
3082;BME280;1551;51.046;7.010;2023-02-03T13:16:54;101856.06;;;11.00;88.86
3082;BME280;1551;51.046;7.010;2023-02-03T13:19:51;101854.41;;;11.03;88.82
3082;BME280;1551;51.046;7.010;2023-02-03T13:22:40;101856.13;;;11.07;89.06
3082;BME280;1551;51.046;7.010;2023-02-03T13:41:19;101857.91;;;11.13;88.12
3082;BME280;1551;51.046;7.010;2023-02-03T13:44:12;101869.88;;;11.17;88.29
3082;BME280;1551;51.046;7.010;2023-02-03T13:47:03;101864.75;;;11.19;88.30
3082;BME280;1551;51.046;7.010;2023-02-03T13:49:55;101869.91;;;11.28;88.18
3082;BME280;1551;51.046;7.010;2023-02-03T13:55:50;101856.25;;;11.30;87.57
3082;BME280;1551;51.046;7.010;2023-02-03T13:58:39;101826.41;;;11.35;87.68
3082;BME280;1551;51.046;7.010;2023-02-03T14:01:37;101837.56;;;11.45;87.17
3082;BME280;1551;51.046;7.010;2023-02-03T14:07:35;101837.59;;;11.51;86.93
3082;BME280;1551;51.046;7.010;2023-02-03T14:10:25;101845.28;;;11.54;86.71
3082;BME280;1551;51.046;7.010;2023-02-03T14:13:20;101849.56;;;11.52;86.33
3082;BME280;1551;51.046;7.010;2023-02-03T14:16:21;101870.03;;;11.49;86.33
3082;BME280;1551;51.046;7.010;2023-02-03T14:22:20;101876.91;;;11.53;86.44
3082;BME280;1551;51.046;7.010;2023-02-03T14:25:09;101881.22;;;11.60;86.69
3082;BME280;1551;51.046;7.010;2023-02-03T14:28:01;101882.94;;;11.59;86.88
3082;BME280;1551;51.046;7.010;2023-02-03T14:31:23;101888.03;;;11.56;87.03
3082;BME280;1551;51.046;7.010;2023-02-03T14:34:12;101878.63;;;11.54;86.99
3082;BME280;1551;51.046;7.010;2023-02-03T14:40:28;101852.16;;;11.58;86.99
3082;BME280;1551;51.046;7.010;2023-02-03T14:46:58;101856.47;;;11.66;86.25
3082;BME280;1551;51.046;7.010;2023-02-03T14:56:39;101867.59;;;11.67;85.86
3082;BME280;1551;51.046;7.010;2023-02-03T14:59:52;101867.63;;;11.71;85.84
3082;BME280;1551;51.046;7.010;2023-02-03T15:06:03;101862.44;;;11.62;85.99
3082;BME280;1551;51.046;7.010;2023-02-03T15:08:53;101882.94;;;11.59;85.52
3082;BME280;1551;51.046;7.010;2023-02-03T15:11:47;101865.81;;;11.57;85.96
3082;BME280;1551;51.046;7.010;2023-02-03T15:14:36;101871.81;;;11.59;85.75
3082;BME280;1551;51.046;7.010;2023-02-03T15:17:26;101882.06;;;11.57;85.89
3082;BME280;1551;51.046;7.010;2023-02-03T15:23:28;101882.03;;;11.56;86.10
3082;BME280;1551;51.046;7.010;2023-02-03T15:26:25;101890.59;;;11.56;85.60
3082;BME280;1551;51.046;7.010;2023-02-03T15:29:21;101888.91;;;11.55;85.90
3082;BME280;1551;51.046;7.010;2023-02-03T15:32:35;101916.25;;;11.53;86.16
3082;BME280;1551;51.046;7.010;2023-02-03T15:35:29;101926.44;;;11.49;85.75
3082;BME280;1551;51.046;7.010;2023-02-03T15:38:28;101937.47;;;11.34;86.60
3082;BME280;1551;51.046;7.010;2023-02-03T15:41:23;101963.94;;;11.33;87.66
3082;BME280;1551;51.046;7.010;2023-02-03T15:44:27;101956.03;;;11.04;88.16
3082;BME280;1551;51.046;7.010;2023-02-03T15:47:25;101971.28;;;10.91;89.70
3082;BME280;1551;51.046;7.010;2023-02-03T15:53:25;101955.75;;;10.71;90.68
3082;BME280;1551;51.046;7.010;2023-02-03T15:56:40;101959.91;;;10.65;90.73
3082;BME280;1551;51.046;7.010;2023-02-03T15:59:34;101964.13;;;10.57;90.41
3082;BME280;1551;51.046;7.010;2023-02-03T16:02:33;101981.22;;;10.61;91.26
3082;BME280;1551;51.046;7.010;2023-02-03T16:05:32;101977.72;;;10.53;91.11
3082;BME280;1551;51.046;7.010;2023-02-03T16:08:38;101991.41;;;10.55;91.68
3082;BME280;1551;51.046;7.010;2023-02-03T16:11:31;101986.16;;;10.46;91.11
3082;BME280;1551;51.046;7.010;2023-02-03T16:14:32;101982.72;;;10.41;91.64
3082;BME280;1551;51.046;7.010;2023-02-03T16:17:25;101997.22;;;10.42;91.40
3082;BME280;1551;51.046;7.010;2023-02-03T16:20:24;102001.47;;;10.38;91.60
3082;BME280;1551;51.046;7.010;2023-02-03T16:23:23;102006.59;;;10.38;92.07
3082;BME280;1551;51.046;7.010;2023-02-03T16:26:17;102008.34;;;10.44;92.34
3082;BME280;1551;51.046;7.010;2023-02-03T16:29:11;102015.19;;;10.43;91.68
3082;BME280;1551;51.046;7.010;2023-02-03T16:32:19;102019.38;;;10.41;92.13
3082;BME280;1551;51.046;7.010;2023-02-03T16:35:27;102021.94;;;10.40;91.91
3082;BME280;1551;51.046;7.010;2023-02-03T16:38:35;102021.06;;;10.38;91.86
3082;BME280;1551;51.046;7.010;2023-02-03T16:41:44;102013.41;;;10.39;90.71
3082;BME280;1551;51.046;7.010;2023-02-03T16:44:51;102010.84;;;10.39;91.09
3082;BME280;1551;51.046;7.010;2023-02-03T16:48:00;102019.44;;;10.46;91.14
3082;BME280;1551;51.046;7.010;2023-02-03T16:51:14;102020.34;;;10.48;91.02
3082;BME280;1551;51.046;7.010;2023-02-03T16:54:04;102019.47;;;10.47;90.26
3082;BME280;1551;51.046;7.010;2023-02-03T16:56:53;102026.31;;;10.48;89.82
3082;BME280;1551;51.046;7.010;2023-02-03T16:59:44;102034.88;;;10.52;90.94
3082;BME280;1551;51.046;7.010;2023-02-03T17:02:33;102032.34;;;10.53;90.67
3082;BME280;1551;51.046;7.010;2023-02-03T17:05:22;102046.91;;;10.57;90.74
3082;BME280;1551;51.046;7.010;2023-02-03T17:08:11;102043.44;;;10.55;90.61
3082;BME280;1551;51.046;7.010;2023-02-03T17:11:02;102050.25;;;10.53;90.57
3082;BME280;1551;51.046;7.010;2023-02-03T17:13:52;102051.16;;;10.57;90.83